Time;durP1;ratioP1;P1;durP2;ratioP2;P2;SDS_P1;SDS_P2;PMS_P1;PMS_P2;Temp;Humidity;BMP_temperature;BMP_pressure;BME280_temperature;BME280_humidity;BME280_pressure;Samples;Min_cycle;Max_cycle;Signal;HPM_P1;HPM_P2
2021/09/21 00:01:29;;;;;;;11.07;4.80;;;16.10;89.10;;;;;;6250974;22;20143;-84
2021/09/21 00:03:55;;;;;;;7.53;4.10;;;15.80;90.10;;;;;;6250442;22;20237;-83
2021/09/21 00:06:20;;;;;;;8.27;4.70;;;15.70;90.40;;;;;;6251173;22;20152;-89
2021/09/21 00:08:46;;;;;;;8.13;4.60;;;15.50;90.50;;;;;;6250703;22;20141;-85
2021/09/21 00:11:12;;;;;;;5.97;3.80;;;15.50;90.90;;;;;;6250199;22;20238;-84
2021/09/21 00:13:38;;;;;;;7.90;4.17;;;15.50;90.60;;;;;;6250575;22;20148;-85
2021/09/21 00:16:04;;;;;;;7.20;4.40;;;15.40;90.50;;;;;;6251011;22;20157;-87
2021/09/21 00:18:30;;;;;;;7.30;4.23;;;15.40;90.50;;;;;;6250430;22;20185;-87
2021/09/21 00:20:56;;;;;;;10.20;3.90;;;15.20;90.70;;;;;;6250824;22;20571;-85
2021/09/21 00:23:22;;;;;;;6.67;3.77;;;15.10;91.00;;;;;;6250188;22;20149;-87
2021/09/21 00:25:48;;;;;;;6.07;4.60;;;15.10;91.20;;;;;;6250660;22;20151;-87
2021/09/21 00:28:13;;;;;;;5.33;3.87;;;15.10;91.40;;;;;;6253481;22;20176;-84
2021/09/21 00:30:46;;;;;;;7.43;4.20;;;15.00;91.60;;;;;;6250379;22;20155;-83
2021/09/21 00:33:20;;;;;;;6.83;4.60;;;14.90;92.10;;;;;;6250678;22;20598;-88
2021/09/21 00:35:51;;;;;;;5.33;3.93;;;14.80;92.30;;;;;;6250357;22;20146;-84
2021/09/21 00:38:19;;;;;;;8.47;4.60;;;14.80;92.60;;;;;;6250713;22;20178;-83
2021/09/21 00:40:46;;;;;;;8.33;4.80;;;14.80;92.60;;;;;;6250536;22;20169;-87
2021/09/21 00:43:12;;;;;;;7.27;4.50;;;14.70;92.80;;;;;;6250494;22;20148;-87
2021/09/21 00:45:38;;;;;;;5.80;4.43;;;14.70;93.00;;;;;;6250634;22;20149;-85
2021/09/21 00:48:05;;;;;;;7.87;4.73;;;14.90;92.80;;;;;;6250373;22;20198;-86
2021/09/21 00:50:31;;;;;;;8.67;4.63;;;14.80;92.80;;;;;;6250491;22;20228;-83
2021/09/21 00:53:00;;;;;;;8.20;4.53;;;14.70;93.00;;;;;;6250511;22;20172;-86
2021/09/21 00:55:26;;;;;;;6.93;4.87;;;14.60;93.20;;;;;;6250222;22;20156;-89
2021/09/21 00:57:51;;;;;;;7.43;4.80;;;14.60;93.50;;;;;;6250585;22;20170;-84
2021/09/21 01:00:19;;;;;;;7.00;4.70;;;14.50;94.00;;;;;;6249569;22;20182;-87
2021/09/21 01:02:45;;;;;;;5.87;4.37;;;14.60;94.20;;;;;;6249989;22;20152;-89
2021/09/21 01:05:12;;;;;;;9.67;4.87;;;14.40;94.60;;;;;;6250312;22;20499;-85
2021/09/21 01:07:39;;;;;;;7.60;4.60;;;14.30;94.90;;;;;;6250913;22;20153;-86
2021/09/21 01:10:19;;;;;;;6.93;4.40;;;14.30;95.30;;;;;;6250313;22;20217;-84
2021/09/21 01:12:45;;;;;;;7.97;4.90;;;14.30;95.30;;;;;;6250156;22;20151;-85
2021/09/21 01:15:13;;;;;;;4.93;4.43;;;14.30;95.60;;;;;;6249892;22;20155;-83
2021/09/21 01:17:39;;;;;;;7.47;4.87;;;14.20;95.70;;;;;;6250288;22;20140;-86
2021/09/21 01:20:07;;;;;;;5.73;4.70;;;14.10;95.80;;;;;;6250168;22;20184;-84
2021/09/21 01:22:32;;;;;;;5.57;4.33;;;14.10;96.10;;;;;;6249895;22;20156;-86
2021/09/21 01:24:58;;;;;;;7.30;4.90;;;14.00;96.60;;;;;;6250348;22;20533;-86
2021/09/21 01:27:24;;;;;;;6.53;4.60;;;14.10;96.70;;;;;;6250496;22;20202;-84
2021/09/21 01:29:49;;;;;;;8.23;4.87;;;14.00;96.30;;;;;;6250443;22;20150;-84
2021/09/21 01:32:19;;;;;;;6.63;4.37;;;13.90;96.40;;;;;;6251760;22;20159;-84
2021/09/21 01:34:46;;;;;;;5.03;3.70;;;14.00;96.40;;;;;;6252742;22;20568;-87
2021/09/21 01:37:13;;;;;;;6.83;4.17;;;14.00;96.60;;;;;;6255025;22;20197;-83
2021/09/21 01:39:39;;;;;;;7.37;4.40;;;13.90;97.10;;;;;;6253404;22;20235;-83
2021/09/21 01:42:05;;;;;;;5.73;4.17;;;13.70;97.30;;;;;;6251720;22;20189;-86
2021/09/21 01:44:31;;;;;;;8.17;4.90;;;13.70;97.50;;;;;;6248957;22;20488;-84
2021/09/21 01:47:02;;;;;;;5.40;4.70;;;13.70;97.70;;;;;;6249955;22;20229;-83
2021/09/21 01:49:33;;;;;;;9.33;5.20;;;13.70;97.90;;;;;;6250073;22;20148;-84
2021/09/21 01:52:12;;;;;;;6.37;4.73;;;13.60;98.10;;;;;;6249594;22;20146;-87
2021/09/21 01:59:54;;;;;;;8.63;5.23;;;13.90;98.00;;;;;;6276136;22;20183;-83
2021/09/21 02:02:19;;;;;;;10.23;5.40;;;13.70;98.30;;;;;;6249262;22;20150;-83
2021/09/21 02:04:45;;;;;;;10.60;5.47;;;13.60;98.90;;;;;;6249565;22;20450;-83
2021/09/21 02:07:11;;;;;;;8.33;5.57;;;13.70;98.90;;;;;;6248048;22;20150;-84
2021/09/21 02:09:36;;;;;;;9.00;5.30;;;13.70;98.80;;;;;;6249306;22;20202;-83
2021/09/21 02:12:02;;;;;;;8.37;5.63;;;13.80;98.70;;;;;;6249278;22;20491;-85
2021/09/21 02:14:28;;;;;;;8.40;5.80;;;13.70;98.80;;;;;;6249448;22;20582;-84
2021/09/21 02:16:54;;;;;;;9.50;5.90;;;13.60;98.90;;;;;;6249146;22;20151;-83
2021/09/21 02:19:21;;;;;;;8.43;5.77;;;13.70;98.90;;;;;;6249590;22;20187;-84
2021/09/21 02:21:47;;;;;;;11.57;6.67;;;13.60;99.10;;;;;;6250633;22;20146;-83
2021/09/21 02:24:18;;;;;;;13.70;6.60;;;13.60;99.20;;;;;;6250346;22;20157;-83
2021/09/21 02:26:44;;;;;;;12.53;6.27;;;13.40;99.40;;;;;;6249505;22;20540;-83
2021/09/21 02:29:10;;;;;;;10.97;7.33;;;13.30;99.80;;;;;;6249014;22;20212;-88
2021/09/21 02:31:36;;;;;;;9.57;6.57;;;13.40;99.80;;;;;;6249206;22;20150;-88
2021/09/21 02:34:02;;;;;;;9.43;6.57;;;13.40;99.90;;;;;;6249757;22;20150;-88
2021/09/21 02:36:27;;;;;;;8.80;6.53;;;13.30;99.90;;;;;;6250367;22;20157;-86
2021/09/21 02:38:53;;;;;;;8.63;6.87;;;13.30;99.90;;;;;;6248588;22;20193;-84
2021/09/21 02:41:19;;;;;;;10.60;6.33;;;13.20;99.90;;;;;;6247513;22;20161;-88
2021/09/21 02:43:45;;;;;;;10.13;7.30;;;13.10;99.90;;;;;;6247455;22;20682;-84
2021/09/21 02:46:10;;;;;;;10.40;6.90;;;13.00;99.90;;;;;;6248054;22;20567;-85
2021/09/21 02:48:36;;;;;;;13.33;6.60;;;13.20;99.90;;;;;;6249587;22;20156;-84
2021/09/21 02:51:03;;;;;;;9.90;7.27;;;13.10;99.90;;;;;;6249702;22;20584;-84
2021/09/21 02:53:28;;;;;;;8.30;6.53;;;13.20;99.90;;;;;;6248962;22;20492;-83
2021/09/21 02:55:55;;;;;;;9.37;6.47;;;13.10;99.90;;;;;;6276607;22;20134;-83
2021/09/21 02:58:21;;;;;;;14.87;7.33;;;13.10;99.90;;;;;;6275965;22;20239;-88
2021/09/21 03:00:50;;;;;;;10.37;7.00;;;12.90;99.90;;;;;;6249388;22;20595;-82
2021/09/21 03:03:16;;;;;;;9.97;6.80;;;12.90;99.90;;;;;;6249016;22;20164;-89
2021/09/21 03:05:45;;;;;;;8.10;6.57;;;12.80;99.90;;;;;;6249155;22;20179;-85
2021/09/21 03:08:16;;;;;;;10.00;7.20;;;12.90;99.90;;;;;;6247690;22;20154;-85
2021/09/21 03:18:30;;;;;;;12.03;7.53;;;12.80;99.90;;;;;;6277763;22;20179;-83
2021/09/21 03:20:56;;;;;;;10.03;7.17;;;12.80;99.90;;;;;;6251342;22;20582;-83
2021/09/21 03:23:21;;;;;;;10.80;6.63;;;13.00;99.90;;;;;;6251702;22;20177;-83
2021/09/21 03:25:47;;;;;;;14.30;7.10;;;13.10;99.90;;;;;;6250858;22;20204;-83
2021/09/21 03:28:13;;;;;;;13.93;7.40;;;13.20;99.90;;;;;;6277925;22;20167;-82
2021/09/21 03:30:38;;;;;;;10.73;6.73;;;13.20;99.90;;;;;;6277892;22;20149;-84
2021/09/21 03:33:04;;;;;;;12.40;6.80;;;13.10;99.90;;;;;;6250941;22;20142;-83
2021/09/21 03:35:30;;;;;;;12.13;7.23;;;13.20;99.90;;;;;;6251226;22;20227;-89
2021/09/21 03:37:55;;;;;;;10.80;6.47;;;13.30;99.90;;;;;;6250491;22;20142;-87
2021/09/21 03:40:22;;;;;;;11.57;6.73;;;13.40;99.90;;;;;;6250495;22;20196;-88
2021/09/21 03:42:47;;;;;;;10.33;6.03;;;13.40;99.90;;;;;;6251128;22;20153;-87
2021/09/21 03:45:13;;;;;;;10.20;6.30;;;13.30;99.90;;;;;;6251287;22;20225;-89
2021/09/21 03:47:39;;;;;;;11.83;7.63;;;13.30;99.90;;;;;;6250963;22;20153;-89
2021/09/21 03:50:06;;;;;;;11.17;6.43;;;13.40;99.90;;;;;;6249156;22;20153;-88
2021/09/21 03:52:32;;;;;;;14.73;7.37;;;13.30;99.90;;;;;;6248493;22;20473;-84
2021/09/21 03:54:57;;;;;;;14.90;7.17;;;13.40;99.90;;;;;;6248327;22;20182;-83
2021/09/21 03:57:23;;;;;;;15.70;7.60;;;13.40;99.90;;;;;;6248450;22;20149;-83
2021/09/21 03:59:49;;;;;;;10.37;7.10;;;13.30;99.90;;;;;;6249407;22;20488;-82
2021/09/21 04:02:14;;;;;;;14.33;7.57;;;13.20;99.90;;;;;;6249394;22;20157;-83
2021/09/21 04:04:40;;;;;;;13.63;7.37;;;13.20;99.90;;;;;;6275464;22;20168;-83
2021/09/21 04:07:06;;;;;;;9.87;6.77;;;13.30;99.90;;;;;;6250153;22;20204;-82
2021/09/21 04:09:32;;;;;;;14.37;7.50;;;13.20;99.90;;;;;;6249637;22;20154;-82
2021/09/21 04:11:57;;;;;;;12.20;8.20;;;13.20;99.90;;;;;;6250128;22;20161;-82
2021/09/21 04:14:23;;;;;;;11.93;7.83;;;13.20;99.90;;;;;;6250472;22;20174;-84
2021/09/21 04:16:49;;;;;;;15.57;7.40;;;13.20;99.90;;;;;;6250578;22;20149;-82
2021/09/21 04:19:14;;;;;;;13.53;8.33;;;13.00;99.90;;;;;;6250126;22;20185;-82
2021/09/21 04:21:40;;;;;;;17.20;8.93;;;13.00;99.90;;;;;;6250059;22;20235;-82
2021/09/21 04:24:06;;;;;;;16.57;8.03;;;12.90;99.90;;;;;;6247726;22;20186;-83
2021/09/21 04:26:31;;;;;;;17.00;9.00;;;13.00;99.90;;;;;;6248212;22;20144;-83
2021/09/21 04:28:57;;;;;;;20.10;8.23;;;12.90;99.90;;;;;;6248885;22;20503;-82
2021/09/21 04:31:25;;;;;;;13.57;7.80;;;12.70;99.90;;;;;;6250163;22;20582;-84
2021/09/21 04:33:52;;;;;;;16.40;8.17;;;12.70;99.90;;;;;;6250403;22;20159;-89
2021/09/21 04:36:18;;;;;;;14.50;7.47;;;12.70;99.90;;;;;;6250605;22;20161;-89
2021/09/21 04:38:45;;;;;;;15.57;7.93;;;12.70;99.90;;;;;;6249844;22;20174;-85
2021/09/21 04:41:11;;;;;;;16.80;7.83;;;12.70;99.90;;;;;;6250008;22;20266;-82
2021/09/21 04:43:37;;;;;;;11.43;7.90;;;12.90;99.90;;;;;;6250926;22;20585;-83
2021/09/21 04:46:07;;;;;;;14.40;8.13;;;12.70;99.90;;;;;;6250820;22;20144;-83
2021/09/21 04:48:33;;;;;;;12.63;7.30;;;12.70;99.90;;;;;;6249926;22;20149;-82
2021/09/21 04:51:00;;;;;;;9.70;7.63;;;12.60;99.90;;;;;;6249779;22;20148;-83
2021/09/21 04:53:26;;;;;;;13.07;7.57;;;12.40;99.90;;;;;;6250002;22;20224;-82
2021/09/21 04:55:52;;;;;;;11.63;7.10;;;12.50;99.90;;;;;;6246488;22;20157;-82
2021/09/21 04:58:17;;;;;;;16.30;7.93;;;12.70;99.90;;;;;;6243373;22;20158;-83
2021/09/21 05:00:43;;;;;;;14.17;8.03;;;12.40;99.90;;;;;;6249573;22;20212;-84
2021/09/21 05:03:09;;;;;;;15.37;7.83;;;12.50;99.90;;;;;;6249716;22;20244;-88
2021/09/21 05:05:35;;;;;;;14.07;7.63;;;12.50;99.90;;;;;;6250072;22;20147;-89
2021/09/21 05:08:01;;;;;;;14.87;7.63;;;12.50;99.90;;;;;;6250323;22;20568;-85
2021/09/21 05:10:28;;;;;;;15.13;7.63;;;12.30;99.90;;;;;;6277203;22;20704;-89
2021/09/21 05:12:53;;;;;;;12.43;7.57;;;12.30;99.90;;;;;;6249617;22;20243;-85
2021/09/21 05:15:19;;;;;;;16.03;7.90;;;12.20;99.90;;;;;;6249656;22;20152;-84
2021/09/21 05:17:46;;;;;;;15.63;8.53;;;12.20;99.90;;;;;;6250714;22;20193;-86
2021/09/21 05:20:12;;;;;;;15.93;8.70;;;12.30;99.90;;;;;;6249909;22;20203;-82
2021/09/21 05:22:37;;;;;;;12.80;7.97;;;12.40;99.90;;;;;;6249629;22;20221;-85
2021/09/21 06:49:46;;;;;;;14.23;9.20;;;12.80;99.90;;;;;;5918854;24;20183;-93
2021/09/21 08:00:20;;;;;;;17.83;11.50;;;14.60;99.90;;;;;;6270889;22;20209;-91
2021/09/21 08:02:45;;;;;;;18.17;11.87;;;14.60;99.90;;;;;;6255570;22;20146;-89
2021/09/21 08:05:12;;;;;;;21.67;11.83;;;14.70;99.90;;;;;;6256148;22;20708;-90
2021/09/21 08:07:41;;;;;;;19.43;12.20;;;14.80;99.90;;;;;;6254307;22;20174;-91
2021/09/21 08:10:07;;;;;;;19.93;11.47;;;14.80;99.90;;;;;;6254165;22;20150;-89
2021/09/21 08:12:33;;;;;;;18.70;11.93;;;14.80;99.90;;;;;;6254604;22;20145;-89
2021/09/21 08:14:59;;;;;;;18.67;12.20;;;14.80;99.90;;;;;;6253749;22;20153;-89
2021/09/21 08:17:27;;;;;;;18.00;13.03;;;15.00;99.90;;;;;;6240119;22;20171;-92
2021/09/21 08:19:54;;;;;;;20.37;12.80;;;15.00;99.90;;;;;;6253516;22;20238;-93
2021/09/21 08:22:20;;;;;;;20.30;14.20;;;15.10;99.90;;;;;;6252475;22;20170;-85
2021/09/21 08:24:47;;;;;;;27.93;15.00;;;15.20;99.90;;;;;;6250539;22;20167;-86
2021/09/21 08:27:13;;;;;;;23.20;13.87;;;15.30;99.90;;;;;;6251000;22;20156;-86
2021/09/21 08:29:40;;;;;;;23.13;14.00;;;15.40;99.90;;;;;;6251012;22;20164;-85
2021/09/21 08:32:06;;;;;;;19.67;13.93;;;15.50;99.90;;;;;;6252712;22;20151;-86
2021/09/21 08:34:32;;;;;;;23.17;14.37;;;15.40;99.90;;;;;;6252463;22;20173;-86
2021/09/21 08:36:57;;;;;;;19.43;13.93;;;15.50;99.90;;;;;;6251117;22;20154;-85
2021/09/21 08:39:23;;;;;;;24.87;15.23;;;15.50;99.90;;;;;;6249259;22;20191;-85
2021/09/21 08:41:50;;;;;;;21.93;14.80;;;15.50;99.90;;;;;;6249647;22;20173;-86
2021/09/21 08:44:18;;;;;;;22.37;14.80;;;15.60;99.90;;;;;;6251641;22;20152;-85
2021/09/21 08:46:45;;;;;;;22.93;14.77;;;15.80;99.90;;;;;;6249198;22;20616;-86
2021/09/21 08:49:11;;;;;;;22.30;14.17;;;15.90;99.90;;;;;;6250815;22;20171;-86
2021/09/21 08:51:37;;;;;;;20.03;15.17;;;15.90;99.90;;;;;;6251149;22;20144;-85
2021/09/21 08:54:03;;;;;;;22.23;13.40;;;16.00;99.90;;;;;;6250976;22;20172;-85
2021/09/21 08:56:29;;;;;;;26.33;14.40;;;15.80;99.90;;;;;;6250973;22;20153;-86
2021/09/21 08:59:09;;;;;;;22.03;13.83;;;15.80;99.90;;;;;;6251847;22;20609;-86
2021/09/21 09:01:40;;;;;;;22.43;15.27;;;16.00;99.90;;;;;;6251166;22;20149;-86
2021/09/21 09:04:06;;;;;;;22.90;15.07;;;16.10;99.90;;;;;;6250632;22;20624;-85
2021/09/21 09:06:41;;;;;;;23.30;13.53;;;16.20;99.90;;;;;;6250859;22;20149;-86
2021/09/21 09:09:15;;;;;;;20.27;13.07;;;16.30;99.90;;;;;;6251599;22;20563;-86
2021/09/21 09:11:42;;;;;;;20.03;13.27;;;16.30;99.90;;;;;;6250387;22;20148;-85
2021/09/21 09:14:17;;;;;;;22.43;13.80;;;16.20;99.90;;;;;;6250475;22;20145;-87
2021/09/21 09:16:44;;;;;;;19.47;13.87;;;16.20;99.90;;;;;;6251418;22;20155;-91
2021/09/21 09:19:14;;;;;;;22.73;14.90;;;16.20;99.90;;;;;;6251106;22;20616;-91
2021/09/21 09:21:45;;;;;;;22.17;13.40;;;16.30;99.90;;;;;;6251679;22;20163;-89
2021/09/21 09:29:15;;;;;;;24.27;13.57;;;16.30;99.90;;;;;;6275387;22;20204;-85
2021/09/21 11:05:27;;;;;;;11.40;6.67;;;24.10;80.20;;;;;;6266040;22;20510;-83
2021/09/21 11:08:07;;;;;;;9.17;6.23;;;24.50;79.10;;;;;;6251199;22;20177;-83
2021/09/21 11:10:36;;;;;;;9.13;5.67;;;25.20;78.30;;;;;;6251030;22;20143;-84
2021/09/21 11:13:09;;;;;;;7.87;6.03;;;26.10;74.70;;;;;;6278211;22;20185;-83
2021/09/21 11:15:35;;;;;;;8.07;5.30;;;26.80;71.40;;;;;;6278579;22;20134;-83
2021/09/21 11:18:09;;;;;;;6.43;4.63;;;27.50;67.90;;;;;;6251179;22;20150;-83
2021/09/21 11:20:48;;;;;;;6.17;5.03;;;27.10;68.70;;;;;;6279792;22;20630;-83
2021/09/21 11:23:15;;;;;;;5.73;4.40;;;27.70;68.20;;;;;;6250648;22;20142;-88
2021/09/21 11:25:42;;;;;;;6.00;5.03;;;28.10;66.60;;;;;;6250281;22;20615;-83
2021/09/21 11:28:08;;;;;;;6.33;4.83;;;28.70;64.60;;;;;;6276366;22;20131;-83
2021/09/21 11:30:34;;;;;;;7.15;4.97;;;29.30;63.40;;;;;;6250499;22;20156;-83
2021/09/21 11:33:11;;;;;;;7.30;4.85;;;29.30;62.60;;;;;;6251429;22;20182;-83
2021/09/21 11:54:39;;;;;;;7.00;4.55;;;31.10;57.90;;;;;;6267654;22;20220;-86
2021/09/21 11:57:05;;;;;;;7.55;4.63;;;31.10;57.70;;;;;;6250700;22;20587;-86
2021/09/21 11:59:31;;;;;;;5.70;4.95;;;31.20;56.80;;;;;;6251000;22;20267;-85
2021/09/21 12:01:58;;;;;;;7.47;4.20;;;31.80;56.20;;;;;;6250676;22;20151;-86
2021/09/21 12:04:23;;;;;;;3.90;3.47;;;32.80;55.20;;;;;;6251232;22;20284;-86
2021/09/21 12:06:49;;;;;;;5.15;4.43;;;32.90;55.00;;;;;;6251542;22;20143;-86
2021/09/21 12:09:15;;;;;;;6.00;4.47;;;32.90;55.00;;;;;;6250895;22;20515;-86
2021/09/21 12:11:45;;;;;;;8.02;4.40;;;33.00;54.20;;;;;;6251424;22;20602;-86
2021/09/21 12:14:11;;;;;;;4.30;3.90;;;33.20;53.90;;;;;;6250630;22;20233;-86
2021/09/21 12:16:37;;;;;;;5.75;4.30;;;33.50;53.70;;;;;;6250885;22;20200;-87
2021/09/21 12:19:13;;;;;;;4.53;3.90;;;33.70;53.30;;;;;;6250712;22;20209;-86
2021/09/21 12:21:41;;;;;;;6.18;3.90;;;34.30;52.70;;;;;;6251159;22;20229;-85
2021/09/21 12:24:07;;;;;;;5.05;4.13;;;34.40;51.90;;;;;;6248565;22;20615;-86
2021/09/21 12:26:35;;;;;;;4.20;3.80;;;34.50;52.00;;;;;;6248999;22;20238;-86
2021/09/21 12:29:01;;;;;;;5.00;3.83;;;34.40;51.70;;;;;;6248661;22;20150;-85
2021/09/21 12:31:31;;;;;;;7.00;3.50;;;34.30;51.40;;;;;;6250623;22;20193;-86
2021/09/21 12:34:06;;;;;;;4.65;3.75;;;34.60;51.60;;;;;;6250423;22;20228;-86
2021/09/21 12:36:43;;;;;;;4.95;3.20;;;34.60;50.60;;;;;;6250342;22;20149;-85
2021/09/21 12:39:22;;;;;;;5.78;3.50;;;35.10;50.50;;;;;;6250310;22;20173;-86
2021/09/21 12:41:51;;;;;;;8.30;4.13;;;34.90;50.80;;;;;;6250724;22;20225;-86
2021/09/21 12:44:21;;;;;;;4.60;3.85;;;35.10;50.30;;;;;;6250393;22;20149;-85
2021/09/21 12:46:49;;;;;;;6.25;3.80;;;35.20;50.30;;;;;;6250793;22;20241;-85
2021/09/21 12:49:17;;;;;;;5.30;3.92;;;35.30;50.40;;;;;;6250394;22;20161;-85
2021/09/21 12:51:50;;;;;;;5.10;3.33;;;34.60;50.10;;;;;;6247608;22;20176;-86
2021/09/21 12:54:19;;;;;;;5.57;4.07;;;35.00;50.80;;;;;;6247927;22;20178;-86
2021/09/21 12:56:47;;;;;;;3.47;3.17;;;35.40;50.20;;;;;;6249555;22;20134;-85
2021/09/21 12:59:15;;;;;;;4.95;3.10;;;35.20;49.90;;;;;;6250482;22;20170;-86
2021/09/21 13:01:42;;;;;;;4.85;3.50;;;35.20;50.00;;;;;;6250166;22;20233;-85
2021/09/21 13:04:09;;;;;;;3.55;3.25;;;35.30;49.50;;;;;;6250405;22;20667;-86
2021/09/21 13:06:35;;;;;;;4.95;4.15;;;35.60;48.90;;;;;;6249728;22;20142;-86
2021/09/21 13:09:04;;;;;;;6.40;3.67;;;35.20;48.40;;;;;;6250452;22;20229;-86
2021/09/21 13:11:30;;;;;;;5.60;3.80;;;34.50;49.20;;;;;;6249755;22;20452;-85
2021/09/21 13:13:57;;;;;;;4.88;3.90;;;34.60;49.40;;;;;;6250314;22;20143;-85
2021/09/21 13:16:23;;;;;;;5.20;4.03;;;34.20;49.50;;;;;;6250169;22;20177;-86
2021/09/21 13:18:51;;;;;;;5.32;3.88;;;33.60;49.70;;;;;;6250112;22;20619;-86
2021/09/21 13:21:17;;;;;;;5.75;3.70;;;33.90;49.80;;;;;;6250261;22;20575;-84
2021/09/21 13:23:43;;;;;;;6.55;3.42;;;33.40;49.70;;;;;;6250109;22;20228;-85
2021/09/21 13:26:09;;;;;;;4.85;3.63;;;33.70;49.40;;;;;;6250345;22;20147;-85
2021/09/21 13:28:35;;;;;;;5.80;3.72;;;34.20;49.20;;;;;;6250215;22;20146;-85
2021/09/21 13:31:00;;;;;;;3.72;3.22;;;34.40;49.00;;;;;;6250036;22;20233;-85
2021/09/21 13:33:26;;;;;;;5.35;3.35;;;35.00;48.70;;;;;;6250475;22;20145;-84
2021/09/21 13:35:53;;;;;;;5.45;4.00;;;35.00;48.20;;;;;;6252494;22;20147;-85
2021/09/21 13:38:18;;;;;;;5.35;3.20;;;34.70;48.20;;;;;;6250915;22;20135;-85
2021/09/21 13:40:45;;;;;;;3.40;3.10;;;34.40;48.80;;;;;;6249724;22;20161;-85
2021/09/21 13:43:12;;;;;;;5.97;3.78;;;33.70;49.20;;;;;;6249923;22;20580;-85
2021/09/21 13:45:37;;;;;;;4.38;3.47;;;33.60;49.40;;;;;;6249686;22;20154;-85
2021/09/21 13:48:03;;;;;;;5.70;3.65;;;34.20;49.10;;;;;;6250092;22;20224;-85
2021/09/21 13:50:30;;;;;;;4.60;3.20;;;34.10;48.90;;;;;;6249397;22;20162;-85
2021/09/21 13:52:56;;;;;;;5.63;3.60;;;34.00;49.50;;;;;;6249595;22;20204;-85
2021/09/21 13:55:22;;;;;;;4.32;3.40;;;33.40;50.00;;;;;;6249910;22;20550;-85
2021/09/21 13:57:48;;;;;;;5.13;3.40;;;32.90;50.10;;;;;;6249757;22;20142;-85
2021/09/21 14:00:18;;;;;;;4.93;3.20;;;32.70;50.10;;;;;;6249804;22;20186;-85
2021/09/21 14:02:45;;;;;;;6.97;3.70;;;32.80;50.10;;;;;;6249749;22;20151;-87
2021/09/21 14:05:12;;;;;;;5.68;3.60;;;32.50;50.40;;;;;;6250191;22;20153;-87
2021/09/21 14:07:37;;;;;;;6.07;3.13;;;32.20;50.60;;;;;;6250231;22;20229;-85
2021/09/21 14:10:05;;;;;;;2.95;2.67;;;31.50;50.30;;;;;;6249740;22;20559;-85
2021/09/21 14:12:31;;;;;;;5.03;3.53;;;31.30;51.30;;;;;;6249459;22;20154;-85
2021/09/21 14:15:00;;;;;;;6.13;3.22;;;31.00;51.50;;;;;;6249939;22;20143;-83
2021/09/21 14:17:27;;;;;;;4.10;3.03;;;30.80;52.10;;;;;;6249535;22;20672;-84
2021/09/21 14:19:53;;;;;;;4.05;3.25;;;30.80;52.10;;;;;;6249720;22;20178;-86
2021/09/21 14:22:19;;;;;;;3.07;2.77;;;30.80;51.40;;;;;;6248952;22;20524;-84
2021/09/21 14:24:45;;;;;;;2.83;2.63;;;30.60;52.20;;;;;;6247620;22;20188;-83
2021/09/21 14:27:10;;;;;;;4.60;2.75;;;30.60;52.10;;;;;;6247218;22;20241;-83
2021/09/21 14:29:36;;;;;;;4.72;2.95;;;30.60;51.80;;;;;;6249626;22;20738;-85
2021/09/21 14:32:04;;;;;;;5.40;2.70;;;30.90;51.60;;;;;;6250229;22;20150;-84
2021/09/21 14:34:31;;;;;;;4.43;3.15;;;30.90;51.60;;;;;;6249513;22;20138;-85
2021/09/21 14:36:58;;;;;;;5.78;3.10;;;31.10;51.20;;;;;;6250290;22;20147;-85
2021/09/21 14:39:26;;;;;;;2.60;2.40;;;31.40;51.50;;;;;;6249831;22;20170;-84
2021/09/21 14:41:53;;;;;;;4.75;2.85;;;31.50;51.00;;;;;;6249956;22;20150;-85
2021/09/21 14:44:19;;;;;;;4.35;2.85;;;31.50;51.00;;;;;;6249730;22;20230;-84
2021/09/21 15:49:20;;;;;;;3.93;2.40;;;29.00;54.80;;;;;;6276209;22;20658;-81
2021/09/21 15:51:46;;;;;;;4.83;2.70;;;29.40;53.50;;;;;;6277284;22;20180;-81
2021/09/21 15:54:12;;;;;;;4.20;2.87;;;29.70;52.90;;;;;;6251140;22;20449;-81
2021/09/21 15:56:37;;;;;;;2.90;2.27;;;29.20;53.60;;;;;;6251254;22;20185;-81
2021/09/21 15:59:03;;;;;;;3.60;2.97;;;28.70;54.30;;;;;;6278278;22;20177;-92
2021/09/21 16:01:29;;;;;;;4.00;3.03;;;28.40;54.80;;;;;;6277191;22;20158;-92
2021/09/21 16:03:54;;;;;;;5.77;2.73;;;28.10;54.70;;;;;;6251379;22;20472;-91
2021/09/21 16:06:20;;;;;;;3.80;3.13;;;27.90;55.30;;;;;;6251080;22;20142;-92
2021/09/21 16:08:45;;;;;;;5.20;3.20;;;27.70;55.50;;;;;;6250797;22;20154;-92
2021/09/21 16:11:12;;;;;;;4.67;2.90;;;27.40;55.30;;;;;;6251114;22;20154;-92
2021/09/21 16:13:38;;;;;;;7.13;2.70;;;27.10;56.60;;;;;;6250772;22;20147;-89
2021/09/21 16:16:04;;;;;;;3.87;2.90;;;26.90;56.60;;;;;;6250584;22;20150;-90
2021/09/21 16:18:30;;;;;;;4.00;2.90;;;26.90;56.90;;;;;;6250620;22;20158;-88
2021/09/21 16:37:09;;;;;;;3.30;2.77;;;25.40;59.10;;;;;;6265485;22;20201;-88
2021/09/21 16:39:36;;;;;;;4.37;2.87;;;25.40;59.40;;;;;;6250231;22;20232;-83
2021/09/21 16:42:03;;;;;;;4.67;2.90;;;25.20;59.50;;;;;;6277633;22;20166;-78
2021/09/21 16:44:32;;;;;;;6.43;3.03;;;25.30;59.30;;;;;;6276541;22;20218;-78
2021/09/21 16:47:00;;;;;;;4.43;2.70;;;25.30;59.70;;;;;;6250472;22;20637;-78
2021/09/21 16:49:26;;;;;;;6.30;3.10;;;25.10;59.60;;;;;;6277447;22;20185;-77
2021/09/21 16:51:53;;;;;;;4.47;3.07;;;24.90;59.60;;;;;;6250669;22;20147;-84
2021/09/21 16:54:19;;;;;;;5.37;3.00;;;24.70;59.90;;;;;;6250544;22;20464;-81
2021/09/21 16:56:45;;;;;;;7.17;2.90;;;24.60;60.50;;;;;;6277272;22;20216;-84
2021/09/21 16:59:11;;;;;;;6.97;3.27;;;24.50;61.00;;;;;;6250060;22;20198;-86
2021/09/21 17:01:38;;;;;;;4.03;2.63;;;24.20;61.20;;;;;;6275280;22;20564;-87
2021/09/21 17:04:10;;;;;;;5.37;2.70;;;24.00;62.00;;;;;;6274968;22;20137;-78
2021/09/21 17:06:36;;;;;;;5.67;2.73;;;23.80;62.30;;;;;;6248239;22;20167;-84
2021/09/21 17:09:02;;;;;;;8.70;2.73;;;23.60;63.20;;;;;;6275283;22;20135;-79
2021/09/21 17:11:28;;;;;;;4.40;3.03;;;23.60;63.80;;;;;;6248060;22;20568;-81
2021/09/21 17:13:54;;;;;;;4.00;3.00;;;23.40;64.30;;;;;;6275321;22;20170;-80
2021/09/21 17:16:19;;;;;;;5.97;2.93;;;23.20;65.00;;;;;;6275203;22;20140;-83
2021/09/21 17:18:45;;;;;;;7.13;3.47;;;23.20;65.70;;;;;;6274983;22;20135;-78
2021/09/21 17:21:12;;;;;;;5.83;3.40;;;23.20;66.10;;;;;;6275456;22;20149;-81
2021/09/21 17:23:37;;;;;;;4.60;3.60;;;23.00;66.20;;;;;;6248162;22;20246;-81
2021/09/21 17:26:03;;;;;;;7.20;3.83;;;22.90;66.30;;;;;;6275881;22;20158;-78
2021/09/21 17:28:29;;;;;;;6.17;3.33;;;22.60;67.30;;;;;;6248493;22;20226;-79
2021/09/21 17:30:54;;;;;;;7.47;3.87;;;22.50;67.90;;;;;;6247987;22;20180;-81
2021/09/21 17:33:21;;;;;;;9.50;3.83;;;22.30;68.70;;;;;;6248440;22;20147;-81
2021/09/21 17:35:47;;;;;;;10.60;4.67;;;22.20;68.90;;;;;;6275906;22;20159;-84
2021/09/21 17:38:13;;;;;;;12.30;5.30;;;22.10;69.10;;;;;;6249374;22;20178;-78
2021/09/21 17:40:38;;;;;;;16.07;5.17;;;22.10;69.50;;;;;;6276701;22;20545;-79
2021/09/21 17:43:04;;;;;;;11.70;5.07;;;22.00;69.10;;;;;;6275026;22;20141;-81
2021/09/21 17:45:35;;;;;;;12.87;4.60;;;22.00;68.80;;;;;;6248438;22;20155;-80
2021/09/21 17:48:03;;;;;;;9.67;4.33;;;21.90;69.40;;;;;;6276368;22;20561;-79
2021/09/21 17:50:29;;;;;;;10.57;4.87;;;21.70;69.60;;;;;;6275842;22;20164;-78
2021/09/21 17:52:57;;;;;;;8.80;4.77;;;21.70;70.30;;;;;;6248137;22;20154;-79
2021/09/21 17:55:24;;;;;;;9.90;4.57;;;21.70;70.00;;;;;;6275215;22;20127;-79
2021/09/21 17:57:50;;;;;;;10.93;4.33;;;21.60;70.80;;;;;;6274756;22;20135;-80
2021/09/21 18:00:17;;;;;;;8.80;4.13;;;21.30;72.10;;;;;;6276057;22;20174;-79
2021/09/21 18:02:43;;;;;;;9.40;3.83;;;21.20;72.40;;;;;;6275988;22;20631;-78
2021/09/21 18:05:11;;;;;;;8.93;3.80;;;21.20;72.40;;;;;;6248568;22;20232;-80
2021/09/21 18:07:37;;;;;;;6.20;3.30;;;21.10;72.90;;;;;;6247373;22;20190;-80
2021/09/21 18:10:07;;;;;;;9.07;3.93;;;21.00;73.30;;;;;;6249209;22;20583;-79
2021/09/21 18:12:33;;;;;;;5.63;3.43;;;20.70;74.30;;;;;;6276068;22;20209;-79
2021/09/21 18:14:58;;;;;;;7.63;3.60;;;20.70;74.80;;;;;;6276502;22;20158;-79
2021/09/21 18:17:45;;;;;;;5.63;3.30;;;20.60;75.10;;;;;;6249295;22;20161;-78
2021/09/21 18:20:32;;;;;;;9.87;3.77;;;20.70;75.50;;;;;;6276218;22;20281;-80
2021/09/21 18:23:25;;;;;;;5.83;3.57;;;20.60;75.10;;;;;;6275731;22;20137;-77
2021/09/21 18:25:52;;;;;;;5.67;3.30;;;20.60;75.30;;;;;;6248796;22;20220;-77
2021/09/21 18:28:19;;;;;;;8.50;3.10;;;20.40;75.50;;;;;;6276242;22;20135;-80
2021/09/21 18:30:46;;;;;;;4.23;2.60;;;20.40;75.90;;;;;;6276285;22;20462;-79
2021/09/21 18:33:12;;;;;;;5.90;2.83;;;20.30;76.50;;;;;;6275915;22;20145;-77
2021/09/21 18:35:45;;;;;;;6.67;3.20;;;20.10;76.30;;;;;;6276139;22;20155;-80
2021/09/21 18:38:17;;;;;;;4.67;3.03;;;20.10;76.90;;;;;;6276087;22;20146;-77
2021/09/21 18:40:44;;;;;;;7.23;3.27;;;20.10;77.50;;;;;;6275763;22;20194;-78
2021/09/21 18:43:12;;;;;;;3.63;2.93;;;20.00;78.00;;;;;;6275293;22;20138;-79
2021/09/21 18:45:39;;;;;;;5.73;3.10;;;20.00;78.50;;;;;;6276778;22;20139;-76